createdAt,value
2017-10-14T00:04:05.956Z,14.71
2017-10-14T00:06:41.433Z,14.72
2017-10-14T00:09:16.667Z,14.71
2017-10-14T00:11:51.970Z,14.70
2017-10-14T00:14:29.039Z,14.63
2017-10-14T00:17:04.187Z,14.69
2017-10-14T00:19:38.889Z,14.64
2017-10-14T00:22:14.259Z,14.62
2017-10-14T00:24:50.452Z,14.51
2017-10-14T00:27:27.593Z,14.49
2017-10-14T00:30:03.212Z,14.49
2017-10-14T00:32:38.477Z,14.49
2017-10-14T00:35:14.298Z,14.46
2017-10-14T00:37:49.025Z,14.46
2017-10-14T00:40:25.086Z,14.38
2017-10-14T00:42:59.970Z,14.34
2017-10-14T00:45:34.857Z,14.32
2017-10-14T00:48:09.522Z,14.34
2017-10-14T00:50:45.231Z,14.29
2017-10-14T00:53:20.203Z,14.31
2017-10-14T00:55:57.666Z,14.40
2017-10-14T00:58:32.750Z,14.41
2017-10-14T01:01:07.675Z,14.37
2017-10-14T01:03:42.634Z,14.34
2017-10-14T01:06:17.599Z,14.39
2017-10-14T01:08:53.055Z,14.35
2017-10-14T01:11:27.649Z,14.40
2017-10-14T01:14:02.995Z,14.36
2017-10-14T01:16:37.728Z,14.42
2017-10-14T01:19:12.359Z,14.38
2017-10-14T01:21:47.389Z,14.42
2017-10-14T01:24:22.059Z,14.49
2017-10-14T01:26:56.924Z,14.46
2017-10-14T01:29:31.417Z,14.50
2017-10-14T01:32:06.607Z,14.54
2017-10-14T01:34:43.192Z,14.54
2017-10-14T01:37:17.978Z,14.51
2017-10-14T01:39:52.619Z,14.51
2017-10-14T01:42:27.603Z,14.57
2017-10-14T01:45:02.183Z,14.62
2017-10-14T01:47:39.782Z,14.66
2017-10-14T01:50:16.760Z,14.63
2017-10-14T01:52:51.764Z,14.67
2017-10-14T01:55:26.267Z,14.65
2017-10-14T01:58:01.138Z,14.66
2017-10-14T02:03:32.791Z,14.72
2017-10-14T02:06:07.811Z,14.74
2017-10-14T02:08:43.597Z,14.79
2017-10-14T02:11:18.822Z,14.92
2017-10-14T02:13:53.773Z,15.03
2017-10-14T02:16:28.465Z,15.12
2017-10-14T02:19:05.010Z,15.15
2017-10-14T02:21:40.296Z,15.14
2017-10-14T02:24:15.286Z,15.19
2017-10-14T02:26:50.320Z,15.23
2017-10-14T02:29:27.775Z,15.16
2017-10-14T02:32:02.485Z,15.08
2017-10-14T02:34:38.387Z,15.00
2017-10-14T02:37:13.385Z,14.99
2017-10-14T02:39:48.749Z,15.00
2017-10-14T02:42:23.922Z,14.95
2017-10-14T02:44:59.029Z,14.88
2017-10-14T02:47:33.894Z,14.94
2017-10-14T02:50:10.525Z,14.86
2017-10-14T02:52:45.978Z,14.83
2017-10-14T02:55:23.132Z,14.77
2017-10-14T02:57:57.598Z,14.63
2017-10-14T03:00:34.767Z,14.64
2017-10-14T03:03:10.027Z,14.69
2017-10-14T03:05:47.101Z,14.60
2017-10-14T03:08:22.298Z,14.57
2017-10-14T03:10:57.756Z,14.49
2017-10-14T03:13:32.544Z,14.46
2017-10-14T03:16:10.317Z,14.32
2017-10-14T03:18:44.970Z,14.31
2017-10-14T03:21:20.371Z,14.40
2017-10-14T03:23:55.617Z,14.42
2017-10-14T03:26:30.322Z,14.37
2017-10-14T03:29:06.067Z,14.37
2017-10-14T03:31:41.612Z,14.39
2017-10-14T03:34:16.896Z,14.40
2017-10-14T03:36:52.410Z,14.37
2017-10-14T03:39:26.855Z,14.34
2017-10-14T03:42:03.610Z,14.38
2017-10-14T03:44:38.074Z,14.35
2017-10-14T03:47:14.994Z,14.31
2017-10-14T03:49:50.924Z,14.20
2017-10-14T03:52:25.905Z,14.26
2017-10-14T03:55:00.990Z,14.24
2017-10-14T03:57:38.250Z,14.28
2017-10-14T04:00:18.724Z,14.25
2017-10-14T04:02:48.305Z,14.31
2017-10-14T04:05:22.980Z,14.38
2017-10-14T04:07:58.239Z,14.37
2017-10-14T04:10:32.897Z,14.36
2017-10-14T04:13:08.139Z,14.27
2017-10-14T04:15:43.543Z,14.25
2017-10-14T04:18:12.873Z,14.23
2017-10-14T04:20:39.697Z,14.27
2017-10-14T04:23:14.705Z,14.32
2017-10-14T04:25:49.772Z,14.32
2017-10-14T04:28:25.318Z,14.25
2017-10-14T04:30:58.139Z,14.24
2017-10-14T04:33:33.506Z,14.23
2017-10-14T04:36:08.265Z,14.22
2017-10-14T04:38:43.392Z,14.26
2017-10-14T04:41:18.046Z,14.26
2017-10-14T04:43:52.988Z,14.21
2017-10-14T04:46:28.283Z,14.22
2017-10-14T04:49:05.292Z,14.22
2017-10-14T04:51:40.439Z,14.20
2017-10-14T04:54:16.272Z,14.20
2017-10-14T04:56:51.037Z,14.21
2017-10-14T04:59:29.065Z,14.13
2017-10-14T05:02:03.868Z,14.15
2017-10-14T05:04:39.806Z,14.22
2017-10-14T05:07:15.081Z,14.21
2017-10-14T05:09:50.587Z,14.20
2017-10-14T05:12:25.818Z,14.11
2017-10-14T05:15:01.306Z,14.14
2017-10-14T05:17:35.949Z,14.18
2017-10-14T05:20:14.281Z,14.21
2017-10-14T05:22:47.105Z,14.16
2017-10-14T05:25:13.861Z,14.17
2017-10-14T05:27:48.639Z,14.15
2017-10-14T05:30:23.492Z,14.26
2017-10-14T05:32:58.569Z,14.30
2017-10-14T05:35:33.201Z,14.33
2017-10-14T05:38:08.680Z,14.39
2017-10-14T05:40:43.845Z,14.39
2017-10-14T05:43:18.983Z,14.41
2017-10-14T05:45:45.699Z,14.47
2017-10-14T05:48:12.567Z,14.44
2017-10-14T05:50:48.473Z,14.52
2017-10-14T05:53:23.472Z,14.66
2017-10-14T05:56:01.152Z,14.67
2017-10-14T05:58:36.193Z,14.76
2017-10-14T06:01:03.946Z,14.77
2017-10-14T06:03:38.729Z,14.92
2017-10-14T06:06:14.606Z,15.02
2017-10-14T06:08:49.929Z,15.12
2017-10-14T06:11:25.696Z,15.13
2017-10-14T06:14:00.496Z,15.22
2017-10-14T06:16:35.452Z,15.32
2017-10-14T06:19:10.508Z,15.38
2017-10-14T06:21:47.897Z,15.41
2017-10-14T06:24:22.586Z,15.46
2017-10-14T06:26:58.355Z,15.61
2017-10-14T06:29:33.357Z,15.80
2017-10-14T06:32:09.664Z,15.99
2017-10-14T06:34:44.542Z,15.88
2017-10-14T06:37:21.246Z,15.87
2017-10-14T06:39:56.254Z,15.82
2017-10-14T06:42:31.889Z,15.76
2017-10-14T06:45:06.716Z,15.81
2017-10-14T06:47:41.344Z,15.79
2017-10-14T06:50:16.319Z,15.80
2017-10-14T06:52:52.733Z,15.97
2017-10-14T06:55:27.553Z,16.00
2017-10-14T06:58:03.513Z,16.19
2017-10-14T07:00:38.339Z,16.33
2017-10-14T07:03:13.466Z,16.22
2017-10-14T07:05:49.233Z,16.22
2017-10-14T07:08:25.399Z,16.24
2017-10-14T07:11:00.185Z,16.24
2017-10-14T07:13:34.829Z,16.37
2017-10-14T07:16:09.377Z,16.27
2017-10-14T07:18:43.952Z,16.37
2017-10-14T07:21:18.538Z,16.50
2017-10-14T07:23:54.289Z,16.40
2017-10-14T07:26:29.998Z,16.66
2017-10-14T07:29:07.134Z,16.81
2017-10-14T07:31:42.221Z,16.87
2017-10-14T07:34:17.897Z,16.71
2017-10-14T07:36:52.632Z,16.94
2017-10-14T07:39:27.387Z,16.86
2017-10-14T07:42:01.992Z,16.98
2017-10-14T07:44:36.907Z,17.11
2017-10-14T07:47:11.952Z,17.00
2017-10-14T07:49:47.679Z,17.19
2017-10-14T07:52:22.634Z,17.05
2017-10-14T07:54:58.069Z,17.11
2017-10-14T07:57:32.786Z,17.13
2017-10-14T08:00:08.075Z,16.92
2017-10-14T08:02:43.217Z,17.09
2017-10-14T08:05:18.082Z,17.03
2017-10-14T08:07:52.845Z,17.05
2017-10-14T08:10:29.700Z,17.15
2017-10-14T08:13:04.341Z,17.12
2017-10-14T08:15:43.468Z,17.20
2017-10-14T08:18:18.908Z,17.37
2017-10-14T08:20:53.798Z,17.50
2017-10-14T08:23:28.297Z,17.79
2017-10-14T08:26:04.451Z,17.89
2017-10-14T08:28:39.466Z,17.97
2017-10-14T08:31:16.372Z,18.00
2017-10-14T08:33:51.455Z,18.06
2017-10-14T08:36:26.549Z,17.74
2017-10-14T08:39:01.843Z,17.92
2017-10-14T08:41:39.158Z,17.62
2017-10-14T08:44:14.386Z,17.53
2017-10-14T08:46:49.066Z,17.47
2017-10-14T08:49:23.958Z,17.65
2017-10-14T08:51:58.657Z,17.71
2017-10-14T08:54:33.805Z,17.70
2017-10-14T08:57:12.851Z,17.80
2017-10-14T08:59:47.555Z,17.88
2017-10-14T09:02:23.305Z,17.64
2017-10-14T09:04:58.105Z,17.60
2017-10-14T09:07:33.324Z,17.76
2017-10-14T09:10:08.440Z,17.70
2017-10-14T09:12:47.075Z,17.60
2017-10-14T09:15:21.995Z,17.75
2017-10-14T09:17:58.564Z,17.81
2017-10-14T09:20:33.935Z,17.68
2017-10-14T09:23:12.266Z,17.49
2017-10-14T09:25:46.901Z,17.62
2017-10-14T09:28:24.720Z,17.66
2017-10-14T09:31:00.064Z,17.88
2017-10-14T09:33:36.630Z,17.94
2017-10-14T09:36:11.084Z,17.37
2017-10-14T09:38:47.938Z,17.50
2017-10-14T09:41:22.967Z,17.66
2017-10-14T09:43:57.902Z,17.88
2017-10-14T09:46:32.878Z,17.98
2017-10-14T09:49:07.828Z,18.28
2017-10-14T09:51:42.561Z,18.50
2017-10-14T09:54:21.418Z,18.54
2017-10-14T09:56:56.693Z,18.42
2017-10-14T09:59:31.427Z,18.63
2017-10-14T10:01:58.204Z,18.67
2017-10-14T10:04:33.570Z,18.65
2017-10-14T10:07:08.781Z,18.78
2017-10-14T10:09:43.886Z,18.67
2017-10-14T10:12:19.091Z,18.77
2017-10-14T10:14:54.461Z,18.75
2017-10-14T10:17:29.414Z,18.89
2017-10-14T10:20:04.165Z,19.02
2017-10-14T10:22:39.255Z,19.21
2017-10-14T10:25:14.042Z,19.39
2017-10-14T10:27:49.570Z,19.59
2017-10-14T10:30:24.491Z,19.70
2017-10-14T10:32:59.691Z,19.70
2017-10-14T10:35:36.877Z,19.88
2017-10-14T10:38:12.311Z,19.94
2017-10-14T10:40:54.499Z,19.97
2017-10-14T10:43:29.384Z,20.11
2017-10-14T10:46:05.079Z,20.16
2017-10-14T10:48:39.725Z,20.30
2017-10-14T10:51:14.246Z,20.42
2017-10-14T10:53:48.914Z,20.65
2017-10-14T10:56:25.987Z,20.72
2017-10-14T10:59:01.783Z,20.60
2017-10-14T11:01:37.030Z,20.17
2017-10-14T11:04:11.804Z,20.14
2017-10-14T11:06:46.677Z,20.18
2017-10-14T11:09:21.390Z,20.16
2017-10-14T11:11:56.637Z,19.99
2017-10-14T11:14:31.304Z,19.92
2017-10-14T11:17:07.345Z,19.83
2017-10-14T11:19:43.080Z,19.73
2017-10-14T11:22:18.863Z,19.89
2017-10-14T11:24:53.337Z,19.83
2017-10-14T11:27:30.659Z,20.00
2017-10-14T11:30:05.684Z,20.04
2017-10-14T11:32:42.067Z,19.93
2017-10-14T11:35:16.957Z,19.77
2017-10-14T11:37:53.472Z,19.77
2017-10-14T11:40:28.472Z,19.76
2017-10-14T11:43:04.895Z,19.76
2017-10-14T11:45:39.840Z,19.95
2017-10-14T11:48:14.756Z,20.12
2017-10-14T11:50:49.328Z,20.03
2017-10-14T11:53:25.130Z,20.23
2017-10-14T11:55:59.686Z,20.40
2017-10-14T11:58:34.656Z,20.45
2017-10-14T12:01:01.386Z,20.53
2017-10-14T12:03:36.031Z,20.43
2017-10-14T12:06:10.701Z,20.36
2017-10-14T12:08:46.204Z,20.27
2017-10-14T12:11:20.759Z,20.10
2017-10-14T12:16:36.385Z,20.28
2017-10-14T12:19:11.358Z,20.37
2017-10-14T12:21:46.884Z,20.41
2017-10-14T12:24:21.444Z,20.43
2017-10-14T12:26:56.211Z,20.57
2017-10-14T12:29:31.933Z,20.67
2017-10-14T12:32:06.988Z,20.61
2017-10-14T12:34:41.750Z,20.56
2017-10-14T12:37:16.889Z,20.56
2017-10-14T12:39:51.921Z,20.54
2017-10-14T12:42:26.510Z,20.49
2017-10-14T12:45:01.928Z,20.34
2017-10-14T12:47:36.747Z,20.13
2017-10-14T12:50:13.003Z,20.04
2017-10-14T12:52:47.987Z,20.00
2017-10-14T12:55:22.659Z,19.95
2017-10-14T12:57:57.236Z,19.97
2017-10-14T13:00:32.963Z,19.94
2017-10-14T13:03:07.853Z,20.01
2017-10-14T13:05:43.558Z,20.04
2017-10-14T13:08:18.357Z,20.01
2017-10-14T13:10:54.836Z,19.31
2017-10-14T13:13:30.017Z,19.07
2017-10-14T13:16:05.609Z,19.32
2017-10-14T13:18:40.982Z,19.47
2017-10-14T13:21:17.335Z,19.50
2017-10-14T13:23:52.291Z,19.28
2017-10-14T13:26:28.227Z,18.98
2017-10-14T13:29:03.128Z,18.80
2017-10-14T13:31:39.099Z,18.76
2017-10-14T13:34:13.922Z,18.76
2017-10-14T13:36:49.231Z,18.81
2017-10-14T13:39:23.883Z,18.85
2017-10-14T13:41:59.100Z,18.76
2017-10-14T13:44:35.874Z,18.63
2017-10-14T13:47:11.448Z,18.42
2017-10-14T13:49:46.029Z,18.15
2017-10-14T13:52:21.070Z,18.01
2017-10-14T13:54:55.882Z,17.94
2017-10-14T13:57:31.408Z,17.87
2017-10-14T14:00:06.160Z,17.76
2017-10-14T14:02:35.424Z,17.81
2017-10-14T14:05:10.835Z,17.77
2017-10-14T14:07:45.494Z,17.76
2017-10-14T14:10:20.097Z,17.79
2017-10-14T14:12:55.944Z,17.84
2017-10-14T14:15:31.161Z,17.89
2017-10-14T14:18:06.856Z,17.89
2017-10-14T14:20:41.641Z,17.80
2017-10-14T14:23:22.372Z,17.74
2017-10-14T14:25:57.372Z,17.48
2017-10-14T14:28:34.576Z,17.45
2017-10-14T14:31:09.181Z,17.37
2017-10-14T14:33:44.740Z,17.31
2017-10-14T14:36:19.621Z,17.24
2017-10-14T14:38:55.400Z,17.13
2017-10-14T14:41:30.045Z,17.06
2017-10-14T14:44:05.597Z,17.04
2017-10-14T14:46:41.751Z,16.91
2017-10-14T14:49:16.507Z,16.85
2017-10-14T14:51:51.884Z,16.81
2017-10-14T14:54:26.831Z,16.76
2017-10-14T14:57:01.621Z,16.68
2017-10-14T14:59:36.380Z,16.62
2017-10-14T15:02:11.245Z,16.58
2017-10-14T15:04:46.143Z,16.53
2017-10-14T15:07:20.903Z,16.42
2017-10-14T15:09:55.783Z,16.35
2017-10-14T15:12:30.371Z,16.31
2017-10-14T15:15:04.980Z,16.28
2017-10-14T15:17:40.219Z,16.22
2017-10-14T15:20:15.783Z,16.19
2017-10-14T15:22:50.384Z,16.15
2017-10-14T15:25:25.092Z,16.01
2017-10-14T15:27:59.895Z,15.98
2017-10-14T15:30:35.716Z,15.96
2017-10-14T15:33:10.539Z,15.90
2017-10-14T15:35:49.446Z,15.84
2017-10-14T15:38:24.708Z,15.83
2017-10-14T15:40:59.675Z,15.78
2017-10-14T15:43:34.276Z,15.71
2017-10-14T15:46:14.559Z,15.65
2017-10-14T15:48:49.757Z,15.60
2017-10-14T15:51:26.266Z,15.56
2017-10-14T15:54:01.267Z,15.53
2017-10-14T15:56:38.988Z,15.48
2017-10-14T15:59:14.269Z,15.47
2017-10-14T16:01:41.080Z,15.42
2017-10-14T16:04:16.083Z,15.38
2017-10-14T16:06:51.359Z,15.34
2017-10-14T16:09:27.400Z,15.29
2017-10-14T16:12:02.115Z,15.29
2017-10-14T16:14:37.381Z,15.28
2017-10-14T16:17:15.504Z,15.27
2017-10-14T16:19:50.927Z,15.22
2017-10-14T16:22:26.580Z,15.15
2017-10-14T16:25:01.145Z,15.11
2017-10-14T16:27:35.982Z,15.13
2017-10-14T16:30:11.168Z,15.07
2017-10-14T16:32:46.808Z,14.99
2017-10-14T16:35:22.215Z,14.89
2017-10-14T16:37:56.899Z,14.81
2017-10-14T16:40:31.553Z,14.77
2017-10-14T16:43:08.877Z,14.59
2017-10-14T16:45:43.877Z,14.53
2017-10-14T16:48:22.033Z,14.52
2017-10-14T16:50:57.376Z,14.47
2017-10-14T16:53:32.818Z,14.43
2017-10-14T16:56:07.847Z,14.33
2017-10-14T16:58:45.961Z,14.37
2017-10-14T17:01:20.462Z,14.36
2017-10-14T17:03:56.355Z,14.31
2017-10-14T17:06:31.272Z,14.32
2017-10-14T17:09:06.239Z,14.26
2017-10-14T17:11:40.960Z,14.30
2017-10-14T17:14:16.810Z,14.17
2017-10-14T17:16:51.460Z,14.07
2017-10-14T17:19:27.303Z,14.12
2017-10-14T17:22:01.932Z,14.12
2017-10-14T17:24:36.560Z,14.12
2017-10-14T17:27:11.093Z,14.04
2017-10-14T17:29:45.924Z,14.06
2017-10-14T17:32:20.460Z,14.01
2017-10-14T17:34:55.045Z,13.91
2017-10-14T17:37:29.965Z,13.92
2017-10-14T17:40:04.776Z,13.86
2017-10-14T17:42:39.756Z,13.85
2017-10-14T17:45:15.439Z,13.79
2017-10-14T17:47:50.168Z,13.76
2017-10-14T17:50:24.954Z,13.67
2017-10-14T17:52:59.748Z,13.63
2017-10-14T17:55:34.265Z,13.60
2017-10-14T17:58:09.181Z,13.61
2017-10-14T18:00:53.044Z,13.53
2017-10-14T18:03:27.594Z,13.41
2017-10-14T18:06:02.405Z,13.38
2017-10-14T18:08:36.819Z,13.37
2017-10-14T18:11:13.303Z,13.38
2017-10-14T18:13:48.326Z,13.34
2017-10-14T18:16:24.741Z,13.32
2017-10-14T18:18:59.928Z,13.38
2017-10-14T18:21:41.127Z,13.51
2017-10-14T18:24:16.361Z,13.60
2017-10-14T18:26:52.923Z,13.62
2017-10-14T18:29:28.050Z,13.60
2017-10-14T18:32:03.736Z,13.55
2017-10-14T18:34:38.392Z,13.49
2017-10-14T18:39:53.771Z,13.47
2017-10-14T18:45:34.477Z,13.38
2017-10-14T18:48:09.151Z,13.36
2017-10-14T18:50:46.481Z,13.31
2017-10-14T18:53:22.808Z,13.24
2017-10-14T18:55:57.421Z,13.20
2017-10-14T18:58:32.233Z,13.17
2017-10-14T19:01:12.503Z,13.19
2017-10-14T19:03:49.112Z,13.19
2017-10-14T19:06:25.750Z,13.15
2017-10-14T19:09:01.033Z,13.16
2017-10-14T19:11:38.723Z,13.15
2017-10-14T19:14:16.399Z,13.15
2017-10-14T19:16:52.145Z,13.15
2017-10-14T19:19:29.329Z,13.18
2017-10-14T19:22:04.009Z,13.17
2017-10-14T19:24:39.548Z,13.15
2017-10-14T19:27:15.577Z,13.12
2017-10-14T19:29:50.427Z,13.11
2017-10-14T19:32:25.589Z,13.12
2017-10-14T19:35:02.813Z,13.10
2017-10-14T19:37:37.327Z,13.07
2017-10-14T19:40:16.404Z,13.11
2017-10-14T19:42:51.531Z,13.19
2017-10-14T19:45:27.080Z,13.21
2017-10-14T19:48:03.638Z,13.26
2017-10-14T19:50:42.773Z,13.31
2017-10-14T19:53:17.419Z,13.27
2017-10-14T19:55:52.051Z,13.28
2017-10-14T19:58:27.348Z,13.37
2017-10-14T20:00:54.122Z,13.39
2017-10-14T20:03:29.172Z,13.46
2017-10-14T20:06:09.067Z,13.55
2017-10-14T20:08:44.242Z,13.59
2017-10-14T20:11:19.730Z,13.65
2017-10-14T20:13:54.295Z,13.65
2017-10-14T20:16:31.813Z,13.70
2017-10-14T20:19:06.429Z,13.71
2017-10-14T20:21:41.171Z,13.71
2017-10-14T20:24:16.466Z,13.75
2017-10-14T20:26:51.016Z,13.77
2017-10-14T20:29:25.727Z,13.84
2017-10-14T20:32:00.740Z,13.93
2017-10-14T20:34:35.828Z,13.97
2017-10-14T20:37:11.306Z,13.98
2017-10-14T20:39:45.964Z,14.00
2017-10-14T20:42:21.601Z,14.09
2017-10-14T20:44:56.875Z,14.15
2017-10-14T20:47:32.389Z,14.18
2017-10-14T20:50:06.952Z,14.20
2017-10-14T20:52:41.727Z,14.12
2017-10-14T20:55:16.913Z,14.11
2017-10-14T20:57:51.589Z,14.17
2017-10-14T21:00:27.027Z,14.18
2017-10-14T21:03:05.095Z,14.22
2017-10-14T21:05:39.743Z,14.25
2017-10-14T21:08:16.075Z,14.33
2017-10-14T21:10:51.094Z,14.41
2017-10-14T21:13:26.443Z,14.52
2017-10-14T21:16:01.940Z,14.50
2017-10-14T21:18:37.320Z,14.50
2017-10-14T21:21:11.760Z,14.48
2017-10-14T21:23:46.338Z,14.42
2017-10-14T21:26:21.982Z,14.32
2017-10-14T21:28:58.390Z,14.33
2017-10-14T21:31:33.402Z,14.30
2017-10-14T21:34:08.092Z,14.35
2017-10-14T21:36:43.583Z,14.34
2017-10-14T21:39:20.068Z,14.28
2017-10-14T21:41:55.627Z,14.27
2017-10-14T21:44:32.080Z,14.38
2017-10-14T21:47:06.728Z,14.42
2017-10-14T21:49:48.361Z,14.50
2017-10-14T21:52:23.071Z,14.62
2017-10-14T21:55:00.132Z,14.65
2017-10-14T21:57:35.097Z,14.68
2017-10-14T22:00:10.591Z,14.68
2017-10-14T22:02:37.292Z,14.74
2017-10-14T22:05:12.292Z,14.83
2017-10-14T22:07:46.808Z,14.91
2017-10-14T22:10:22.397Z,14.95
2017-10-14T22:12:56.897Z,15.04
2017-10-14T22:15:32.331Z,15.10
2017-10-14T22:18:06.827Z,15.17
2017-10-14T22:20:42.255Z,15.19
2017-10-14T22:23:17.576Z,15.17
2017-10-14T22:25:53.922Z,15.19
2017-10-14T22:28:29.055Z,15.22
2017-10-14T22:31:03.690Z,15.24
2017-10-14T22:33:39.115Z,15.32
2017-10-14T22:36:14.095Z,15.30
2017-10-14T22:38:48.599Z,15.28
2017-10-14T22:41:26.033Z,15.34
2017-10-14T22:44:00.538Z,15.37
2017-10-14T22:46:35.134Z,15.34
2017-10-14T22:49:09.746Z,15.35
2017-10-14T22:51:45.451Z,15.39
2017-10-14T22:54:20.128Z,15.34
2017-10-14T22:56:57.340Z,15.31
2017-10-14T22:59:32.454Z,15.33
2017-10-14T23:02:08.692Z,15.29
2017-10-14T23:04:44.179Z,15.30
2017-10-14T23:07:18.870Z,15.37
2017-10-14T23:09:53.328Z,15.37
2017-10-14T23:12:27.937Z,15.39
2017-10-14T23:15:02.494Z,15.42
2017-10-14T23:17:38.178Z,15.42
2017-10-14T23:20:13.533Z,15.43
2017-10-14T23:22:48.406Z,15.45
2017-10-14T23:25:23.776Z,15.41
2017-10-14T23:27:58.683Z,15.46
2017-10-14T23:30:33.783Z,15.54
2017-10-14T23:33:08.691Z,15.57
2017-10-14T23:35:43.761Z,15.59
2017-10-14T23:38:19.941Z,15.63
2017-10-14T23:40:54.746Z,15.63
2017-10-14T23:43:33.497Z,15.65
2017-10-14T23:46:08.042Z,15.64
2017-10-14T23:48:43.983Z,15.61
2017-10-14T23:51:18.695Z,15.58
2017-10-14T23:53:54.381Z,15.54
2017-10-14T23:56:29.020Z,15.53
2017-10-14T23:59:03.890Z,15.49
